Time,TemperatureF,DewpointF,PressureIn,WindDirection,WindDirectionDegrees,WindSpeedMPH,WindSpeedGustMPH,Humidity,HourlyPrecipIn,Conditions,Clouds,dailyrainin,SoftwareType,DateUTC
2013-04-15 00:05:00,54.2,54.2,29.95,NNE,19,0.0,0.0,100,0.00,,,0.00,Wunderground v.1.15,2013-04-15 04:05:00,
2013-04-15 00:09:00,54.2,54.2,29.95,NNE,19,0.0,0.0,100,0.00,,,0.00,Wunderground v.1.15,2013-04-15 04:09:00,
2013-04-15 00:15:00,54.3,54.3,29.95,NNE,19,0.0,0.0,100,0.00,,,0.00,Wunderground v.1.15,2013-04-15 04:15:00,
2013-04-15 00:20:00,54.3,54.3,29.95,NNE,19,0.0,0.0,100,0.00,,,0.00,Wunderground v.1.15,2013-04-15 04:20:00,
2013-04-15 00:30:00,54.3,54.3,29.95,NNE,19,0.0,0.0,100,0.00,,,0.00,Wunderground v.1.15,2013-04-15 04:30:00,
2013-04-15 00:39:00,54.4,54.4,29.95,NNE,19,0.0,0.0,100,0.00,,,0.00,Wunderground v.1.15,2013-04-15 04:39:00,
2013-04-15 00:45:00,54.4,54.4,29.96,NNE,19,0.0,0.0,100,0.00,,,0.00,Wunderground v.1.15,2013-04-15 04:45:00,
2013-04-15 00:50:00,54.4,54.4,29.96,NNE,19,0.0,0.0,100,0.00,,,0.00,Wunderground v.1.15,2013-04-15 04:50:00,
2013-04-15 01:00:00,54.5,54.5,29.95,NNE,19,0.0,0.0,100,0.00,,,0.00,Wunderground v.1.15,2013-04-15 05:00:00,
2013-04-15 01:09:00,54.6,54.6,29.95,NNE,19,0.0,0.0,100,0.00,,,0.00,Wunderground v.1.15,2013-04-15 05:09:00,
2013-04-15 01:19:00,54.7,54.7,29.95,NNE,19,0.0,0.0,100,0.00,,,0.00,Wunderground v.1.15,2013-04-15 05:19:00,
2013-04-15 01:25:00,54.7,54.7,29.95,NNE,18,0.0,0.0,100,0.00,,,0.00,Wunderground v.1.15,2013-04-15 05:25:00,
2013-04-15 01:30:00,54.7,54.7,29.95,NNE,19,0.0,0.0,100,0.00,,,0.01,Wunderground v.1.15,2013-04-15 05:30:00,
2013-04-15 01:40:00,54.8,54.8,29.95,NNE,18,0.0,0.0,100,0.00,,,0.01,Wunderground v.1.15,2013-04-15 05:40:00,
2013-04-15 01:49:00,54.8,54.8,29.94,NNE,18,0.0,0.0,100,0.00,,,0.01,Wunderground v.1.15,2013-04-15 05:49:00,
2013-04-15 01:55:00,54.9,54.9,29.94,NNE,19,0.0,0.0,100,0.00,,,0.01,Wunderground v.1.15,2013-04-15 05:55:00,
2013-04-15 02:00:00,54.9,54.9,29.94,NNE,18,0.0,0.0,100,0.00,,,0.01,Wunderground v.1.15,2013-04-15 06:00:00,
2013-04-15 02:10:00,54.9,54.9,29.94,NNE,19,0.0,0.0,100,0.00,,,0.01,Wunderground v.1.15,2013-04-15 06:10:00,
2013-04-15 02:19:00,55.0,55.0,29.94,NNE,18,0.0,0.0,100,0.00,,,0.01,Wunderground v.1.15,2013-04-15 06:19:00,
2013-04-15 02:29:00,55.0,55.0,29.94,NNE,19,0.0,0.0,100,0.00,,,0.01,Wunderground v.1.15,2013-04-15 06:29:00,
2013-04-15 02:35:00,55.0,55.0,29.94,NNE,19,0.0,0.0,100,0.00,,,0.01,Wunderground v.1.15,2013-04-15 06:35:00,
2013-04-15 02:40:00,55.1,55.1,29.94,NNE,18,0.0,0.0,100,0.00,,,0.02,Wunderground v.1.15,2013-04-15 06:40:00,
2013-04-15 02:50:00,55.1,55.1,29.94,NNE,18,0.0,0.0,100,0.00,,,0.02,Wunderground v.1.15,2013-04-15 06:50:00,
2013-04-15 02:59:00,55.1,55.1,29.93,NNE,18,0.0,0.0,100,0.00,,,0.02,Wunderground v.1.15,2013-04-15 06:59:00,
2013-04-15 03:05:00,55.1,55.1,29.93,NNE,19,0.0,0.0,100,0.00,,,0.02,Wunderground v.1.15,2013-04-15 07:05:00,
2013-04-15 03:44:00,55.1,55.1,29.93,NNE,19,0.0,0.0,100,0.00,,,0.02,Wunderground v.1.15,2013-04-15 07:44:00,
2013-04-15 03:49:00,55.1,55.1,29.93,NNE,19,0.0,0.0,100,0.00,,,0.02,Wunderground v.1.15,2013-04-15 07:49:00,
2013-04-15 03:55:00,55.2,55.2,29.93,NNE,19,0.0,0.0,100,0.00,,,0.02,Wunderground v.1.15,2013-04-15 07:55:00,
2013-04-15 04:00:00,55.1,55.1,29.94,NNE,19,0.0,0.0,100,0.00,,,0.02,Wunderground v.1.15,2013-04-15 08:00:00,
2013-04-15 08:05:00,55.8,55.8,30.01,NNE,19,0.0,0.0,100,0.00,,,0.02,Wunderground v.1.15,2013-04-15 12:05:00,
2013-04-15 08:10:00,55.9,55.9,30.01,NNE,19,0.0,0.0,100,0.00,,,0.02,Wunderground v.1.15,2013-04-15 12:10:00,
2013-04-15 08:20:00,56.0,56.0,30.02,NNE,19,0.0,0.0,100,0.00,,,0.02,Wunderground v.1.15,2013-04-15 12:20:00,
2013-04-15 08:30:00,56.2,56.2,30.03,NNE,19,0.0,0.0,100,0.00,,,0.02,Wunderground v.1.15,2013-04-15 12:30:00,
2013-04-15 08:40:00,56.4,56.4,30.03,NNE,19,0.0,0.0,100,0.00,,,0.02,Wunderground v.1.15,2013-04-15 12:40:00,
2013-04-15 08:45:00,56.4,56.4,30.03,NNE,19,0.0,0.0,100,0.00,,,0.02,Wunderground v.1.15,2013-04-15 12:45:00,
2013-04-15 08:55:00,56.6,56.6,30.03,NNE,19,0.0,0.0,100,0.00,,,0.02,Wunderground v.1.15,2013-04-15 12:55:00,
2013-04-15 09:05:00,56.9,56.9,30.03,NNE,19,0.0,0.0,100,0.00,,,0.02,Wunderground v.1.15,2013-04-15 13:05:00,
2013-04-15 09:15:00,57.1,57.1,30.04,NNE,19,0.0,0.0,100,0.00,,,0.02,Wunderground v.1.15,2013-04-15 13:15:00,
2013-04-15 09:20:00,57.1,57.1,30.04,NNE,19,0.0,0.0,100,0.00,,,0.02,Wunderground v.1.15,2013-04-15 13:20:00,
2013-04-15 09:30:00,57.4,57.4,30.04,NNE,19,0.0,0.0,100,0.00,,,0.02,Wunderground v.1.15,2013-04-15 13:30:00,
2013-04-15 09:40:00,57.6,57.6,30.04,NNE,19,0.0,0.0,100,0.00,,,0.02,Wunderground v.1.15,2013-04-15 13:40:00,
2013-04-15 09:49:00,57.8,57.8,30.04,NNE,19,0.0,0.0,100,0.00,,,0.02,Wunderground v.1.15,2013-04-15 13:49:00,
2013-04-15 09:55:00,57.9,57.9,30.04,NNE,19,0.0,0.0,100,0.00,,,0.02,Wunderground v.1.15,2013-04-15 13:55:00,
2013-04-15 10:05:00,58.0,58.0,30.05,NNE,19,0.0,0.0,100,0.00,,,0.02,Wunderground v.1.15,2013-04-15 14:05:00,
2013-04-15 10:10:00,58.1,58.1,30.05,NNE,19,0.0,0.0,100,0.00,,,0.02,Wunderground v.1.15,2013-04-15 14:10:00,
2013-04-15 10:20:00,58.5,58.5,30.06,NNE,19,0.0,0.0,100,0.00,,,0.02,Wunderground v.1.15,2013-04-15 14:20:00,
2013-04-15 10:25:00,58.9,58.9,30.06,NNE,19,0.0,0.0,100,0.00,,,0.02,Wunderground v.1.15,2013-04-15 14:25:00,
2013-04-15 10:35:00,59.0,59.0,30.06,NNE,19,0.0,0.0,100,0.00,,,0.02,Wunderground v.1.15,2013-04-15 14:35:00,
2013-04-15 10:45:00,59.2,59.2,30.06,NNE,19,0.0,0.0,100,0.00,,,0.02,Wunderground v.1.15,2013-04-15 14:45:00,
2013-04-15 10:50:00,59.4,59.4,30.06,NNE,19,0.0,0.0,100,0.00,,,0.02,Wunderground v.1.15,2013-04-15 14:50:00,
2013-04-15 10:55:00,59.5,59.5,30.06,NNE,19,0.0,0.0,100,0.00,,,0.02,Wunderground v.1.15,2013-04-15 14:55:00,
2013-04-15 11:00:00,59.6,59.6,30.05,NNE,19,0.0,0.0,100,0.00,,,0.02,Wunderground v.1.15,2013-04-15 15:00:00,
2013-04-15 11:10:00,60.5,60.5,30.05,NNE,19,0.0,0.0,100,0.00,,,0.02,Wunderground v.1.15,2013-04-15 15:10:00,
2013-04-15 11:20:00,61.3,61.3,30.05,NNE,19,0.0,0.0,100,0.00,,,0.02,Wunderground v.1.15,2013-04-15 15:20:00,
2013-04-15 11:30:00,61.8,61.2,30.06,NNE,19,0.0,0.0,98,0.00,,,0.02,Wunderground v.1.15,2013-04-15 15:30:00,
2013-04-15 11:40:00,62.1,60.9,30.06,NNE,19,0.0,0.0,96,0.00,,,0.02,Wunderground v.1.15,2013-04-15 15:40:00,
2013-04-15 11:50:00,62.5,61.3,30.06,NNE,19,0.0,0.0,96,0.00,,,0.02,Wunderground v.1.15,2013-04-15 15:50:00,
2013-04-15 11:59:00,62.9,61.7,30.06,NNE,19,0.0,0.0,96,0.00,,,0.02,Wunderground v.1.15,2013-04-15 15:59:00,
2013-04-15 12:05:00,63.2,61.4,30.06,NNE,19,0.0,0.0,94,0.00,,,0.02,Wunderground v.1.15,2013-04-15 16:05:00,
2013-04-15 12:10:00,63.0,60.9,30.06,NNE,19,0.0,0.0,93,0.00,,,0.02,Wunderground v.1.15,2013-04-15 16:10:00,
2013-04-15 12:20:00,63.3,61.2,30.05,NNE,19,0.0,0.0,93,0.00,,,0.02,Wunderground v.1.15,2013-04-15 16:20:00,
2013-04-15 12:30:00,63.7,61.3,30.05,NNE,19,0.0,0.0,92,0.00,,,0.02,Wunderground v.1.15,2013-04-15 16:30:00,
2013-04-15 12:40:00,64.0,61.3,30.05,NNE,19,0.0,0.0,91,0.00,,,0.02,Wunderground v.1.15,2013-04-15 16:40:00,
2013-04-15 12:49:00,64.8,62.1,30.05,NNE,19,0.0,0.0,91,0.00,,,0.02,Wunderground v.1.15,2013-04-15 16:49:00,
2013-04-15 12:55:00,65.5,62.2,30.05,NNE,19,0.0,0.0,89,0.00,,,0.02,Wunderground v.1.15,2013-04-15 16:55:00,
2013-04-15 13:00:00,65.6,62.3,30.05,NNE,19,0.0,0.0,89,0.00,,,0.02,Wunderground v.1.15,2013-04-15 17:00:00,
2013-04-15 13:10:00,65.3,61.7,30.05,NNE,19,0.0,0.0,88,0.00,,,0.02,Wunderground v.1.15,2013-04-15 17:10:00,
2013-04-15 13:20:00,64.9,61.6,30.05,NNE,19,0.0,0.0,89,0.00,,,0.02,Wunderground v.1.15,2013-04-15 17:20:00,
2013-04-15 13:25:00,65.2,62.2,30.05,NNE,18,0.0,0.0,90,0.00,,,0.02,Wunderground v.1.15,2013-04-15 17:25:00,
2013-04-15 13:30:00,65.4,62.4,30.05,NNE,19,0.0,0.0,90,0.00,,,0.02,Wunderground v.1.15,2013-04-15 17:30:00,
2013-04-15 13:35:00,65.7,62.4,30.05,NNE,18,0.0,0.0,89,0.00,,,0.02,Wunderground v.1.15,2013-04-15 17:35:00,
2013-04-15 13:40:00,66.2,62.5,30.05,NNE,19,0.0,0.0,88,0.00,,,0.02,Wunderground v.1.15,2013-04-15 17:40:00,
2013-04-15 13:50:00,66.5,61.8,30.05,NNE,19,0.0,0.0,85,0.00,,,0.02,Wunderground v.1.15,2013-04-15 17:50:00,
2013-04-15 14:00:00,66.6,62.3,30.05,NNE,19,0.0,0.0,86,0.00,,,0.02,Wunderground v.1.15,2013-04-15 18:00:00,
2013-04-15 14:10:00,66.9,61.9,30.05,NNE,19,0.0,0.0,84,0.00,,,0.02,Wunderground v.1.15,2013-04-15 18:10:00,
2013-04-15 14:19:00,67.2,61.9,30.04,NNE,19,0.0,0.0,83,0.00,,,0.02,Wunderground v.1.15,2013-04-15 18:19:00,
2013-04-15 14:25:00,67.1,62.4,30.04,NNE,19,0.0,0.0,85,0.00,,,0.02,Wunderground v.1.15,2013-04-15 18:25:00,
2013-04-15 14:30:00,67.3,61.6,30.05,NNE,19,0.0,0.0,82,0.00,,,0.02,Wunderground v.1.15,2013-04-15 18:30:00,
2013-04-15 14:40:00,67.5,62.2,30.05,NNE,19,0.0,0.0,83,0.00,,,0.02,Wunderground v.1.15,2013-04-15 18:40:00,
2013-04-15 14:49:00,67.6,62.9,30.06,NNE,19,0.0,0.0,85,0.00,,,0.02,Wunderground v.1.15,2013-04-15 18:49:00,
2013-04-15 14:55:00,67.5,62.2,30.06,NNE,19,0.0,0.0,83,0.00,,,0.02,Wunderground v.1.15,2013-04-15 18:55:00,
2013-04-15 15:00:00,67.7,62.7,30.05,NNE,18,0.0,0.0,84,0.00,,,0.02,Wunderground v.1.15,2013-04-15 19:00:00,
2013-04-15 15:04:00,68.0,63.0,30.05,NNE,18,0.0,0.0,84,0.00,,,0.02,Wunderground v.1.15,2013-04-15 19:04:00,
2013-04-15 15:10:00,68.0,62.6,30.05,NNE,19,0.0,0.0,83,0.00,,,0.02,Wunderground v.1.15,2013-04-15 19:10:00,
2013-04-15 15:19:00,68.0,63.0,30.05,NNE,19,0.0,0.0,84,0.00,,,0.02,Wunderground v.1.15,2013-04-15 19:19:00,
2013-04-15 15:25:00,68.0,62.6,30.05,NNE,19,0.0,0.0,83,0.00,,,0.02,Wunderground v.1.15,2013-04-15 19:25:00,
2013-04-15 15:30:00,68.1,62.7,30.05,NNE,19,0.0,0.0,83,0.00,,,0.02,Wunderground v.1.15,2013-04-15 19:30:00,
2013-04-15 15:40:00,68.1,62.0,30.05,NNE,19,0.0,0.0,81,0.00,,,0.02,Wunderground v.1.15,2013-04-15 19:40:00,
2013-04-15 15:49:00,68.4,62.0,30.05,NNE,18,0.0,0.0,80,0.00,,,0.02,Wunderground v.1.15,2013-04-15 19:49:00,
2013-04-15 15:55:00,68.5,62.1,30.05,NNE,18,0.0,0.0,80,0.00,,,0.02,Wunderground v.1.15,2013-04-15 19:55:00,
2013-04-15 16:00:00,68.6,62.5,30.04,NNE,19,0.0,0.0,81,0.00,,,0.02,Wunderground v.1.15,2013-04-15 20:00:00,
2013-04-15 16:05:00,68.9,62.5,30.04,NNE,18,0.0,0.0,80,0.00,,,0.02,Wunderground v.1.15,2013-04-15 20:05:00,
2013-04-15 16:10:00,69.3,62.1,30.04,NNE,19,0.0,0.0,78,0.00,,,0.02,Wunderground v.1.15,2013-04-15 20:10:00,
2013-04-15 16:20:00,70.1,63.6,30.04,SE,137,0.0,0.0,80,0.00,,,0.02,Wunderground v.1.15,2013-04-15 20:20:00,
2013-04-15 16:24:00,70.5,62.9,30.04,SE,133,0.0,0.0,77,0.00,,,0.02,Wunderground v.1.15,2013-04-15 20:24:00,
2013-04-15 16:29:00,70.7,62.8,30.03,SE,133,0.0,0.0,76,0.00,,,0.02,Wunderground v.1.15,2013-04-15 20:29:00,
2013-04-15 16:35:00,70.9,63.3,30.03,SE,132,0.0,0.0,77,0.00,,,0.02,Wunderground v.1.15,2013-04-15 20:35:00,
2013-04-15 16:40:00,70.9,63.3,30.03,SE,132,0.0,2.0,77,0.00,,,0.02,Wunderground v.1.15,2013-04-15 20:40:00,
2013-04-15 16:50:00,71.1,62.0,30.03,SE,132,0.0,0.0,73,0.00,,,0.02,Wunderground v.1.15,2013-04-15 20:50:00,
2013-04-15 16:54:00,71.2,62.5,30.03,SE,132,0.0,0.0,74,0.00,,,0.02,Wunderground v.1.15,2013-04-15 20:54:00,
2013-04-15 16:59:00,71.3,62.6,30.02,SE,132,0.0,0.0,74,0.00,,,0.02,Wunderground v.1.15,2013-04-15 20:59:00,
2013-04-15 17:05:00,71.3,62.2,30.02,SE,136,0.0,0.0,73,0.00,,,0.02,Wunderground v.1.15,2013-04-15 21:05:00,
2013-04-15 17:10:00,71.4,62.3,30.02,SSE,150,1.0,1.0,73,0.00,,,0.02,Wunderground v.1.15,2013-04-15 21:10:00,
2013-04-15 17:20:00,71.5,62.8,30.02,SSE,156,1.0,1.0,74,0.00,,,0.02,Wunderground v.1.15,2013-04-15 21:20:00,
2013-04-15 17:30:00,71.6,63.3,30.02,ESE,105,0.0,0.0,75,0.00,,,0.02,Wunderground v.1.15,2013-04-15 21:30:00,
2013-04-15 17:39:00,71.6,63.3,30.02,SE,132,0.0,0.0,75,0.00,,,0.02,Wunderground v.1.15,2013-04-15 21:39:00,
2013-04-15 17:45:00,71.4,62.7,30.02,SE,132,0.0,0.0,74,0.00,,,0.02,Wunderground v.1.15,2013-04-15 21:45:00,
2013-04-15 17:50:00,71.3,62.6,30.02,SE,132,0.0,0.0,74,0.00,,,0.02,Wunderground v.1.15,2013-04-15 21:50:00,
2013-04-15 18:00:00,71.3,62.6,30.03,SSE,155,1.0,1.0,74,0.00,,,0.02,Wunderground v.1.15,2013-04-15 22:00:00,
2013-04-15 18:10:00,71.1,63.1,30.03,SSE,155,0.0,0.0,76,0.00,,,0.02,Wunderground v.1.15,2013-04-15 22:10:00,
2013-04-15 18:15:00,71.1,63.1,30.03,SSE,155,0.0,0.0,76,0.00,,,0.02,Wunderground v.1.15,2013-04-15 22:15:00,
2013-04-15 18:20:00,71.1,63.9,30.03,SSE,155,0.0,0.0,78,0.00,,,0.02,Wunderground v.1.15,2013-04-15 22:20:00,
2013-04-15 18:30:00,71.0,62.3,30.04,SSE,155,0.0,0.0,74,0.00,,,0.02,Wunderground v.1.15,2013-04-15 22:30:00,
2013-04-15 18:40:00,71.0,62.7,30.04,SSE,155,0.0,0.0,75,0.00,,,0.02,Wunderground v.1.15,2013-04-15 22:40:00,
2013-04-15 18:49:00,70.7,63.1,30.04,SSE,155,0.0,0.0,77,0.00,,,0.02,Wunderground v.1.15,2013-04-15 22:49:00,
2013-04-15 18:55:00,70.6,63.4,30.04,SSE,155,0.0,0.0,78,0.00,,,0.02,Wunderground v.1.15,2013-04-15 22:55:00,
2013-04-15 19:00:00,70.3,62.7,30.05,SSE,155,0.0,0.0,77,0.00,,,0.02,Wunderground v.1.15,2013-04-15 23:00:00,
2013-04-15 19:10:00,69.9,62.7,30.05,SSE,155,0.0,0.0,78,0.00,,,0.02,Wunderground v.1.15,2013-04-15 23:10:00,
2013-04-15 19:19:00,69.5,62.7,30.05,SSE,155,0.0,0.0,79,0.00,,,0.02,Wunderground v.1.15,2013-04-15 23:19:00,
2013-04-15 19:25:00,69.3,62.5,30.05,SSE,155,0.0,0.0,79,0.00,,,0.02,Wunderground v.1.15,2013-04-15 23:25:00,
2013-04-15 19:35:00,68.9,62.8,30.06,SSE,155,0.0,0.0,81,0.00,,,0.02,Wunderground v.1.15,2013-04-15 23:35:00,
2013-04-15 19:40:00,68.7,62.3,30.06,SSE,155,0.0,0.0,80,0.00,,,0.02,Wunderground v.1.15,2013-04-15 23:40:00,
2013-04-15 19:50:00,68.1,61.7,30.07,SSE,155,0.0,0.0,80,0.00,,,0.02,Wunderground v.1.15,2013-04-15 23:50:00,
2013-04-15 19:59:00,67.7,61.7,30.07,SSE,155,0.0,0.0,81,0.00,,,0.02,Wunderground v.1.15,2013-04-15 23:59:00,
2013-04-15 20:05:00,67.5,61.8,30.07,SSE,155,0.0,0.0,82,0.00,,,0.02,Wunderground v.1.15,2013-04-16 00:05:00,
2013-04-15 20:15:00,67.0,61.7,30.07,SSE,155,0.0,0.0,83,0.00,,,0.02,Wunderground v.1.15,2013-04-16 00:15:00,
2013-04-15 20:20:00,66.7,61.7,30.07,SSE,155,0.0,0.0,84,0.00,,,0.02,Wunderground v.1.15,2013-04-16 00:20:00,
2013-04-15 20:29:00,66.0,61.4,30.08,SSE,155,0.0,0.0,85,0.00,,,0.02,Wunderground v.1.15,2013-04-16 00:29:00,
2013-04-15 20:35:00,65.6,61.6,30.08,SSE,155,0.0,0.0,87,0.00,,,0.02,Wunderground v.1.15,2013-04-16 00:35:00,
2013-04-15 20:40:00,65.3,61.7,30.08,SSE,155,0.0,0.0,88,0.00,,,0.02,Wunderground v.1.15,2013-04-16 00:40:00,
2013-04-15 20:50:00,64.5,61.2,30.09,SSE,155,0.0,0.0,89,0.00,,,0.02,Wunderground v.1.15,2013-04-16 00:50:00,
2013-04-15 20:59:00,63.8,61.1,30.10,SSE,155,0.0,0.0,91,0.00,,,0.02,Wunderground v.1.15,2013-04-16 00:59:00,
2013-04-15 21:05:00,63.4,60.7,30.10,SSE,155,0.0,0.0,91,0.00,,,0.02,Wunderground v.1.15,2013-04-16 01:05:00,
2013-04-15 21:10:00,63.2,60.8,30.10,SSE,155,0.0,0.0,92,0.00,,,0.02,Wunderground v.1.15,2013-04-16 01:10:00,
2013-04-15 21:20:00,62.8,60.7,30.11,SSE,155,0.0,0.0,93,0.00,,,0.02,Wunderground v.1.15,2013-04-16 01:20:00,
2013-04-15 21:29:00,62.5,60.4,30.11,SSE,155,0.0,0.0,93,0.00,,,0.02,Wunderground v.1.15,2013-04-16 01:29:00,
2013-04-15 21:35:00,62.3,60.6,30.11,SSE,155,0.0,0.0,94,0.00,,,0.02,Wunderground v.1.15,2013-04-16 01:35:00,
2013-04-15 21:40:00,62.1,60.4,30.11,SSE,155,0.0,0.0,94,0.00,,,0.02,Wunderground v.1.15,2013-04-16 01:40:00,
2013-04-15 21:50:00,61.8,60.4,30.12,SSE,155,0.0,0.0,95,0.00,,,0.02,Wunderground v.1.15,2013-04-16 01:50:00,
2013-04-15 22:00:00,61.4,60.0,30.13,SSE,155,0.0,0.0,95,0.00,,,0.02,Wunderground v.1.15,2013-04-16 02:00:00,
2013-04-15 22:09:00,61.3,60.2,30.13,SSE,155,0.0,0.0,96,0.00,,,0.02,Wunderground v.1.15,2013-04-16 02:09:00,
2013-04-15 22:15:00,61.2,60.3,30.13,SSE,155,0.0,0.0,97,0.00,,,0.02,Wunderground v.1.15,2013-04-16 02:15:00,
2013-04-15 22:20:00,61.1,60.2,30.13,SSE,155,0.0,0.0,97,0.00,,,0.02,Wunderground v.1.15,2013-04-16 02:20:00,
2013-04-15 22:30:00,61.2,60.6,30.14,SSE,155,0.0,0.0,98,0.00,,,0.02,Wunderground v.1.15,2013-04-16 02:30:00,
2013-04-15 22:40:00,61.4,60.8,30.14,SSE,155,0.0,0.0,98,0.00,,,0.02,Wunderground v.1.15,2013-04-16 02:40:00,
2013-04-15 22:50:00,61.5,60.9,30.14,SSE,155,0.0,0.0,98,0.00,,,0.02,Wunderground v.1.15,2013-04-16 02:50:00,
2013-04-15 23:00:00,61.4,60.8,30.15,SSE,155,0.0,0.0,98,0.00,,,0.02,Wunderground v.1.15,2013-04-16 03:00:00,
2013-04-15 23:10:00,61.3,60.7,30.15,SSE,155,0.0,0.0,98,0.00,,,0.02,Wunderground v.1.15,2013-04-16 03:10:00,
2013-04-15 23:19:00,61.3,61.0,30.15,SSE,155,0.0,0.0,99,0.00,,,0.02,Wunderground v.1.15,2013-04-16 03:19:00,
2013-04-15 23:30:00,61.4,61.1,30.15,SSE,155,0.0,0.0,99,0.00,,,0.02,Wunderground v.1.15,2013-04-16 03:30:00,
2013-04-15 23:40:00,61.4,61.1,30.15,SSE,155,0.0,0.0,99,0.00,,,0.02,Wunderground v.1.15,2013-04-16 03:40:00,
2013-04-15 23:50:00,61.3,61.0,30.15,SSE,155,0.0,0.0,99,0.00,,,0.02,Wunderground v.1.15,2013-04-16 03:50:00,
2013-04-15 23:59:00,61.1,60.8,30.15,SSE,155,0.0,0.0,99,0.00,,,0.02,Wunderground v.1.15,2013-04-16 03:59:00,